Time;durP1;ratioP1;P1;durP2;ratioP2;P2;SDS_P1;SDS_P2;PMS_P1;PMS_P2;Temp;Humidity;BMP_temperature;BMP_pressure;BME280_temperature;BME280_humidity;BME280_pressure;Samples;Min_cycle;Max_cycle;Signal;HPM_P1;HPM_P2
2022/03/15 00:01:21;;;;;;;33.42;18.73;;;;;;;9.02;55.25;102810.44;4963017;28;20034;-72
2022/03/15 00:03:48;;;;;;;30.67;17.60;;;;;;;8.98;55.92;102806.50;4959832;28;20033;-72
2022/03/15 00:06:14;;;;;;;28.13;17.55;;;;;;;8.98;55.82;102806.50;4962247;28;20560;-72
2022/03/15 00:08:40;;;;;;;31.95;18.23;;;;;;;8.97;56.39;102804.81;4960903;28;20031;-72
2022/03/15 00:11:06;;;;;;;33.70;18.60;;;;;;;8.95;57.00;102809.50;4965133;28;20481;-72
2022/03/15 00:13:36;;;;;;;31.77;18.38;;;;;;;8.95;57.38;102809.50;4960652;28;20081;-72
2022/03/15 00:16:03;;;;;;;32.80;19.55;;;;;;;8.93;57.98;102812.38;4959379;28;20476;-72
2022/03/15 00:18:30;;;;;;;30.17;17.80;;;;;;;8.92;58.71;102813.41;4964109;28;20039;-72
2022/03/15 00:20:57;;;;;;;31.65;18.42;;;;;;;8.92;58.61;102810.72;4960512;28;20081;-73
2022/03/15 00:23:23;;;;;;;32.75;18.55;;;;;;;8.92;58.75;102816.06;4960719;28;20128;-72
2022/03/15 00:25:49;;;;;;;28.23;17.08;;;;;;;8.90;59.03;102823.44;4961377;28;20451;-72
2022/03/15 00:28:16;;;;;;;35.17;18.75;;;;;;;8.90;59.86;102819.94;4962744;28;20027;-72
2022/03/15 00:30:42;;;;;;;31.67;19.75;;;;;;;8.90;59.88;102817.28;4963095;28;20077;-72
2022/03/15 00:33:08;;;;;;;35.20;20.30;;;;;;;8.92;60.34;102815.25;4961747;28;20035;-72
2022/03/15 00:35:35;;;;;;;31.15;17.85;;;;;;;8.92;60.51;102807.22;4964385;28;20046;-72
2022/03/15 00:38:00;;;;;;;33.05;19.70;;;;;;;8.93;60.57;102814.22;4958280;28;20559;-72
2022/03/15 00:40:26;;;;;;;30.95;18.35;;;;;;;8.95;60.47;102814.88;4958089;28;20030;-72
2022/03/15 00:42:52;;;;;;;32.60;17.08;;;;;;;8.97;59.94;102819.00;4959484;28;20021;-73
2022/03/15 00:45:19;;;;;;;29.50;17.30;;;;;;;8.99;60.16;102819.66;4962504;28;20026;-73
2022/03/15 00:47:45;;;;;;;40.30;19.98;;;;;;;8.99;60.66;102824.19;4963406;28;20093;-72
2022/03/15 00:50:12;;;;;;;34.30;20.13;;;;;;;8.96;61.08;102817.34;4966219;28;20129;-73
2022/03/15 00:52:37;;;;;;;33.80;20.70;;;;;;;8.94;61.86;102816.72;4962022;28;20035;-72
2022/03/15 00:55:05;;;;;;;35.22;19.63;;;;;;;8.92;62.69;102817.91;4954322;28;20089;-72
2022/03/15 00:57:32;;;;;;;36.38;19.58;;;;;;;8.90;62.76;102823.44;4959762;28;20054;-72
2022/03/15 00:59:57;;;;;;;34.28;19.17;;;;;;;8.89;63.01;102815.63;4960740;28;20074;-73
2022/03/15 01:02:23;;;;;;;33.60;19.52;;;;;;;8.89;63.22;102812.94;4958510;28;20444;-73
2022/03/15 01:04:49;;;;;;;33.65;18.52;;;;;;;8.88;63.35;102819.31;4957345;28;20540;-72
2022/03/15 01:07:15;;;;;;;32.60;19.38;;;;;;;8.88;63.37;102821.97;4963497;28;20120;-72
2022/03/15 01:09:41;;;;;;;37.75;20.52;;;;;;;8.89;63.65;102824.47;4958271;28;20501;-72
2022/03/15 01:12:07;;;;;;;34.35;19.55;;;;;;;8.88;63.41;102816.63;4964481;28;20035;-72
2022/03/15 01:14:34;;;;;;;31.50;17.58;;;;;;;8.92;63.05;102824.09;4961391;28;20378;-72
2022/03/15 01:17:00;;;;;;;29.92;18.05;;;;;;;8.95;62.78;102822.88;4963517;28;20141;-73
2022/03/15 01:19:25;;;;;;;32.60;19.58;;;;;;;8.96;62.75;102822.69;4961874;28;20105;-72
2022/03/15 01:21:52;;;;;;;32.47;18.73;;;;;;;8.97;63.29;102821.69;4963460;28;20030;-72
2022/03/15 01:24:18;;;;;;;35.63;19.73;;;;;;;8.94;63.58;102830.06;4958526;28;20527;-72
2022/03/15 01:26:44;;;;;;;31.48;18.48;;;;;;;8.93;63.65;102830.25;4962149;28;20050;-73
2022/03/15 01:29:09;;;;;;;32.90;19.88;;;;;;;8.91;64.11;102832.31;4961095;28;20268;-73
2022/03/15 01:31:35;;;;;;;33.38;19.00;;;;;;;8.90;63.84;102823.44;4959101;28;20116;-72
2022/03/15 01:34:01;;;;;;;32.22;19.30;;;;;;;8.93;63.90;102830.25;4958835;28;20473;-72
2022/03/15 01:36:27;;;;;;;34.50;19.98;;;;;;;8.94;63.66;102831.91;4958099;28;20037;-73
2022/03/15 01:38:53;;;;;;;31.60;19.15;;;;;;;8.95;63.58;102836.25;4957466;28;20030;-72
2022/03/15 01:41:21;;;;;;;33.20;19.20;;;;;;;8.94;64.03;102832.75;4961353;28;20170;-72
2022/03/15 01:43:48;;;;;;;32.65;18.88;;;;;;;8.93;64.48;102835.63;4958207;28;20030;-72
2022/03/15 01:46:14;;;;;;;34.78;19.65;;;;;;;8.93;64.54;102843.63;4963667;28;20023;-72
2022/03/15 01:48:40;;;;;;;34.83;19.85;;;;;;;8.92;64.36;102833.97;4963087;28;20381;-72
2022/03/15 01:51:07;;;;;;;32.95;19.23;;;;;;;8.92;64.25;102829.44;4961891;28;20057;-72
2022/03/15 01:53:33;;;;;;;36.90;18.17;;;;;;;8.96;64.47;102835.22;4962694;28;20023;-73
2022/03/15 01:55:59;;;;;;;29.80;17.27;;;;;;;8.98;63.68;102833.22;4960439;28;20035;-72
2022/03/15 01:58:25;;;;;;;32.58;17.85;;;;;;;8.99;63.78;102829.53;4958819;28;20388;-72
2022/03/15 02:00:51;;;;;;;35.25;20.08;;;;;;;8.95;64.86;102823.72;4962945;28;20465;-72
2022/03/15 02:03:17;;;;;;;31.95;19.10;;;;;;;8.92;65.40;102824.09;4962289;28;20800;-72
2022/03/15 02:05:43;;;;;;;28.10;17.05;;;;;;;8.92;65.16;102833.97;4963097;28;20023;-73
2022/03/15 02:08:16;;;;;;;27.60;17.08;;;;;;;8.89;65.08;102818.28;4961198;28;20038;-72
2022/03/15 02:10:42;;;;;;;34.15;18.42;;;;;;;8.91;65.16;102813.59;4957593;28;20481;-73
2022/03/15 02:13:09;;;;;;;31.17;17.55;;;;;;;8.91;65.14;102810.91;4961377;28;20081;-72
2022/03/15 02:15:36;;;;;;;30.02;17.90;;;;;;;8.92;64.89;102820.59;4961932;28;20501;-72
2022/03/15 02:18:03;;;;;;;31.00;17.65;;;;;;;8.92;64.73;102817.91;4961503;28;20046;-72
2022/03/15 02:20:30;;;;;;;29.52;18.48;;;;;;;8.91;65.18;102822.44;4957693;28;20031;-72
2022/03/15 02:22:56;;;;;;;34.45;18.02;;;;;;;8.89;65.46;102807.59;4961631;28;20031;-72
2022/03/15 02:25:22;;;;;;;32.50;17.98;;;;;;;8.89;65.50;102823.63;4956873;28;20042;-72
2022/03/15 02:27:48;;;;;;;28.08;16.80;;;;;;;8.89;65.23;102823.63;4960450;28;21678;-72
2022/03/15 02:30:14;;;;;;;32.15;17.83;;;;;;;8.92;64.96;102823.25;4960135;28;20119;-72
2022/03/15 02:32:39;;;;;;;30.98;17.13;;;;;;;8.92;64.85;102823.25;4959928;28;20044;-72
2022/03/15 02:35:06;;;;;;;31.77;17.95;;;;;;;8.88;65.85;102828.16;4959561;28;20026;-72
2022/03/15 02:37:32;;;;;;;29.88;18.13;;;;;;;8.84;65.87;102832.22;4964282;28;20049;-72
2022/03/15 02:39:57;;;;;;;33.05;18.00;;;;;;;8.84;66.24;102834.06;4964397;28;20477;-72
2022/03/15 02:42:23;;;;;;;28.48;17.17;;;;;;;8.83;66.51;102830.56;4963457;28;20563;-72
2022/03/15 02:44:49;;;;;;;30.08;16.90;;;;;;;8.83;66.48;102829.75;4964227;28;20030;-73
2022/03/15 02:47:14;;;;;;;28.48;17.08;;;;;;;8.84;66.43;102832.22;4965214;28;20026;-72
2022/03/15 02:49:40;;;;;;;28.05;16.73;;;;;;;8.85;66.32;102825.03;4964240;28;20027;-73
2022/03/15 02:52:05;;;;;;;28.63;15.98;;;;;;;8.85;66.56;102825.03;4965133;28;20035;-73
2022/03/15 02:54:31;;;;;;;31.38;16.02;;;;;;;8.86;66.02;102832.03;4965034;28;20065;-72
2022/03/15 02:56:57;;;;;;;29.35;17.17;;;;;;;8.88;66.24;102827.31;4962716;28;20500;-72
2022/03/15 02:59:22;;;;;;;30.05;16.55;;;;;;;8.88;66.28;102838.03;4964648;28;20125;-72
2022/03/15 03:01:49;;;;;;;31.00;16.67;;;;;;;8.89;66.33;102835.16;4962972;28;20022;-72
2022/03/15 03:04:15;;;;;;;30.40;16.98;;;;;;;8.89;66.67;102828.97;4963043;28;20067;-73
2022/03/15 03:06:42;;;;;;;29.58;17.00;;;;;;;8.88;66.49;102830.84;4958484;28;20045;-72
2022/03/15 03:09:08;;;;;;;32.38;17.77;;;;;;;8.85;67.00;102844.56;4959500;28;20057;-73
2022/03/15 03:11:34;;;;;;;28.45;16.45;;;;;;;8.84;67.73;102845.59;4963206;28;20081;-72
2022/03/15 03:14:00;;;;;;;30.33;16.70;;;;;;;8.83;67.58;102856.47;4961524;28;20038;-73
2022/03/15 03:16:28;;;;;;;33.97;18.08;;;;;;;8.82;67.74;102857.47;4961115;28;20637;-72
2022/03/15 03:19:00;;;;;;;30.10;16.75;;;;;;;8.81;68.56;102850.47;4962031;28;20031;-72
2022/03/15 03:21:27;;;;;;;34.30;19.27;;;;;;;8.81;68.59;102851.31;4960688;28;20559;-73
2022/03/15 03:23:54;;;;;;;28.08;16.55;;;;;;;8.79;68.77;102853.31;4963072;28;20034;-72
2022/03/15 03:26:24;;;;;;;35.78;17.83;;;;;;;8.78;68.97;102857.81;4960283;28;20089;-72
2022/03/15 03:28:52;;;;;;;32.70;17.27;;;;;;;8.77;69.19;102847.31;4963665;28;20751;-72
2022/03/15 03:31:18;;;;;;;32.88;17.95;;;;;;;8.78;69.07;102849.81;4964378;28;20101;-72
2022/03/15 03:33:44;;;;;;;30.95;17.33;;;;;;;8.79;69.35;102859.47;4958249;28;20453;-72
2022/03/15 03:36:10;;;;;;;29.17;16.75;;;;;;;8.79;69.13;102853.31;4963342;28;20114;-73
2022/03/15 03:38:37;;;;;;;29.52;15.43;;;;;;;8.79;69.54;102850.63;4957447;28;20038;-72
2022/03/15 03:41:04;;;;;;;29.38;15.57;;;;;;;8.81;69.46;102842.47;4961304;28;20035;-72
2022/03/15 03:43:29;;;;;;;29.00;15.75;;;;;;;8.82;69.05;102849.47;4964076;28;20026;-72
2022/03/15 03:45:55;;;;;;;28.00;15.68;;;;;;;8.83;69.49;102856.47;4965693;28;20460;-72
2022/03/15 03:48:23;;;;;;;26.13;15.45;;;;;;;8.82;69.19;102849.47;4965471;28;20037;-72
2022/03/15 03:50:50;;;;;;;30.95;15.43;;;;;;;8.84;68.93;102847.44;4962650;28;20049;-72
2022/03/15 03:53:17;;;;;;;25.33;14.30;;;;;;;8.87;68.70;102857.75;5040466;23;21020;-74
2022/03/15 03:55:44;;;;;;;28.40;15.77;;;;;;;8.87;68.58;102852.41;4978850;28;21844;-74
2022/03/15 03:58:10;;;;;;;26.70;14.18;;;;;;;8.88;68.69;102852.22;4973314;28;20160;-74
2022/03/15 04:00:36;;;;;;;25.25;13.43;;;;;;;8.88;68.56;102852.22;4973153;28;20121;-74
2022/03/15 04:03:01;;;;;;;25.85;15.32;;;;;;;8.90;68.43;102854.69;4982559;28;20141;-74
2022/03/15 04:05:30;;;;;;;25.27;14.10;;;;;;;8.92;68.36;102858.00;4978348;28;20034;-74
2022/03/15 04:07:59;;;;;;;25.52;13.93;;;;;;;8.91;67.86;102856.34;4974407;28;20026;-74
2022/03/15 04:10:28;;;;;;;26.80;14.90;;;;;;;8.90;68.27;102854.69;4979229;28;20069;-74
2022/03/15 04:12:55;;;;;;;30.92;16.35;;;;;;;8.86;69.04;102864.13;4975362;28;20018;-74
2022/03/15 04:15:22;;;;;;;25.77;13.77;;;;;;;8.83;69.14;102861.81;4976183;28;20034;-74
2022/03/15 04:17:48;;;;;;;27.58;14.35;;;;;;;8.84;68.88;102868.81;4973455;28;20026;-74
2022/03/15 04:20:14;;;;;;;28.42;15.80;;;;;;;8.85;68.96;102870.47;4977636;28;20042;-74
2022/03/15 04:22:39;;;;;;;27.88;14.95;;;;;;;8.83;69.11;102869.84;4972426;28;20026;-74
2022/03/15 04:25:06;;;;;;;26.90;14.93;;;;;;;8.83;69.19;102870.66;4976809;28;20035;-74
2022/03/15 04:27:32;;;;;;;28.83;15.93;;;;;;;8.83;69.08;102870.66;4972417;28;20030;-74
2022/03/15 04:29:58;;;;;;;29.73;16.02;;;;;;;8.82;69.60;102873.53;4973705;28;20036;-74
2022/03/15 04:32:23;;;;;;;26.67;15.00;;;;;;;8.81;70.01;102879.88;4972293;28;20058;-74
2022/03/15 04:34:49;;;;;;;26.45;14.90;;;;;;;8.78;70.08;102878.38;4977137;28;20554;-74
2022/03/15 04:37:14;;;;;;;26.75;15.40;;;;;;;8.77;70.02;102872.22;4977350;28;20038;-74
2022/03/15 04:39:40;;;;;;;29.27;15.90;;;;;;;8.76;70.26;102870.56;4976879;28;20034;-74
2022/03/15 04:42:07;;;;;;;25.80;14.70;;;;;;;8.76;70.43;102867.88;4978922;28;20069;-74
2022/03/15 04:44:32;;;;;;;26.63;14.65;;;;;;;8.74;70.79;102867.22;4981480;28;20030;-74
2022/03/15 04:46:58;;;;;;;25.70;14.43;;;;;;;8.71;71.04;102864.94;4977167;28;20041;-74
2022/03/15 04:49:24;;;;;;;29.92;14.63;;;;;;;8.72;70.83;102871.09;4979762;28;20053;-74
2022/03/15 04:51:49;;;;;;;26.88;15.00;;;;;;;8.72;71.02;102866.59;4976889;28;20510;-74
2022/03/15 04:54:15;;;;;;;27.85;14.95;;;;;;;8.72;71.11;102863.91;4976900;28;20035;-74
2022/03/15 04:56:41;;;;;;;22.88;13.38;;;;;;;8.71;70.96;102858.75;4977884;28;20061;-74
2022/03/15 04:59:06;;;;;;;24.50;13.85;;;;;;;8.71;71.18;102862.25;4978545;28;20037;-74
2022/03/15 05:01:32;;;;;;;25.00;13.45;;;;;;;8.71;70.86;102862.25;4977371;28;20419;-74
2022/03/15 05:03:57;;;;;;;25.55;14.18;;;;;;;8.71;70.95;102867.59;4980764;28;20092;-74
2022/03/15 05:06:23;;;;;;;27.52;15.38;;;;;;;8.73;70.97;102862.91;4973804;28;20034;-74
2022/03/15 05:08:48;;;;;;;21.88;12.88;;;;;;;8.72;70.83;102869.25;4976742;28;20540;-74
2022/03/15 05:11:15;;;;;;;24.70;13.85;;;;;;;8.73;70.90;102872.75;4978636;28;20105;-74
2022/03/15 05:13:40;;;;;;;22.67;12.00;;;;;;;8.71;71.45;102877.47;4979524;28;20030;-74
2022/03/15 05:16:10;;;;;;;21.13;12.88;;;;;;;8.71;71.37;102870.28;4977464;28;20038;-74
2022/03/15 05:18:36;;;;;;;26.35;13.30;;;;;;;8.73;71.28;102878.94;4978781;28;20034;-74
2022/03/15 05:21:05;;;;;;;22.67;11.93;;;;;;;8.74;70.82;102877.94;4980191;28;20061;-74
2022/03/15 05:23:31;;;;;;;24.60;12.05;;;;;;;8.76;70.84;102881.25;4977677;28;20146;-74
2022/03/15 05:25:56;;;;;;;21.58;10.93;;;;;;;8.76;71.07;102885.75;4980622;28;20117;-73
2022/03/15 05:28:22;;;;;;;20.48;11.48;;;;;;;8.75;70.40;102882.25;4975217;28;20026;-74
2022/03/15 05:30:48;;;;;;;21.38;11.73;;;;;;;8.76;70.39;102883.09;4981612;28;20508;-74
2022/03/15 05:33:13;;;;;;;18.85;10.95;;;;;;;8.77;70.70;102890.09;4977471;28;20085;-74
2022/03/15 05:35:39;;;;;;;19.33;11.73;;;;;;;8.79;70.11;102888.06;4978293;28;20052;-74
2022/03/15 05:38:04;;;;;;;17.20;10.07;;;;;;;8.76;70.24;102886.59;4978744;28;20036;-74
2022/03/15 05:40:31;;;;;;;19.83;11.38;;;;;;;8.77;70.40;102884.75;4978719;28;20022;-74
2022/03/15 05:42:57;;;;;;;20.20;10.95;;;;;;;8.76;70.76;102889.25;4972983;28;20509;-73
2022/03/15 05:45:25;;;;;;;17.63;9.85;;;;;;;8.79;70.28;102888.88;4975841;28;20050;-73
2022/03/15 05:47:51;;;;;;;21.00;11.57;;;;;;;8.79;70.17;102885.38;4977061;28;20022;-73
2022/03/15 05:50:16;;;;;;;17.80;9.82;;;;;;;8.77;70.68;102885.56;4981664;28;20530;-73
2022/03/15 05:52:42;;;;;;;19.15;10.25;;;;;;;8.75;70.79;102878.75;4978071;28;20026;-74
2022/03/15 05:55:09;;;;;;;17.95;9.15;;;;;;;8.74;70.64;102877.94;4977093;28;20031;-73
2022/03/15 05:57:34;;;;;;;16.35;10.02;;;;;;;8.74;70.59;102880.59;4978511;28;20657;-73
2022/03/15 06:00:00;;;;;;;16.40;9.55;;;;;;;8.74;70.56;102877.94;4977255;28;20118;-73
2022/03/15 06:02:25;;;;;;;18.35;9.45;;;;;;;8.74;70.79;102885.94;4977475;28;20069;-73
2022/03/15 06:04:51;;;;;;;20.17;10.23;;;;;;;8.74;70.82;102877.09;4978622;28;20026;-73
2022/03/15 06:07:17;;;;;;;21.95;9.82;;;;;;;8.73;70.85;102884.28;4979868;28;20037;-73
2022/03/15 06:09:43;;;;;;;24.08;11.23;;;;;;;8.74;70.96;102885.13;4978041;28;20022;-73
2022/03/15 06:12:09;;;;;;;18.63;9.45;;;;;;;8.75;70.91;102887.59;4981168;28;20391;-73
2022/03/15 06:14:35;;;;;;;14.70;9.52;;;;;;;8.76;70.80;102881.25;4978030;28;20022;-73
2022/03/15 06:17:00;;;;;;;19.27;10.02;;;;;;;8.75;70.90;102879.59;4981788;28;20042;-73
2022/03/15 06:19:26;;;;;;;20.20;9.93;;;;;;;8.75;71.17;102879.59;4983388;28;20045;-73
2022/03/15 06:21:52;;;;;;;18.77;9.50;;;;;;;8.75;71.18;102879.59;4984274;28;20563;-73
2022/03/15 06:24:17;;;;;;;16.02;9.20;;;;;;;8.74;71.24;102879.78;4979334;28;20027;-73
2022/03/15 06:26:43;;;;;;;19.48;10.02;;;;;;;8.73;71.07;102872.75;4981839;28;20042;-73
2022/03/15 06:29:09;;;;;;;18.92;9.40;;;;;;;8.71;71.54;102870.28;4984673;28;20104;-73
2022/03/15 06:31:35;;;;;;;20.92;10.20;;;;;;;8.73;71.46;102870.94;4980719;28;20623;-73
2022/03/15 06:34:04;;;;;;;25.02;10.10;;;;;;;8.73;71.01;102870.94;4982813;28;20030;-73
2022/03/15 06:36:30;;;;;;;19.20;9.57;;;;;;;8.74;71.04;102869.91;4984476;28;20037;-73
2022/03/15 06:38:56;;;;;;;17.17;10.18;;;;;;;8.74;71.17;102864.56;4982910;28;20018;-73
2022/03/15 06:41:22;;;;;;;19.30;9.77;;;;;;;8.75;71.33;102868.91;4985764;28;20100;-73
2022/03/15 06:43:48;;;;;;;21.63;10.48;;;;;;;8.77;71.43;102876.72;4983519;28;20486;-73
2022/03/15 06:46:14;;;;;;;16.23;9.55;;;;;;;8.75;71.22;102871.56;4983219;28;20026;-73
2022/03/15 06:48:40;;;;;;;16.85;9.35;;;;;;;8.77;71.15;102880.22;4983804;28;20031;-73
2022/03/15 06:51:06;;;;;;;16.60;9.23;;;;;;;8.82;71.16;102889.56;4980188;28;20041;-74
2022/03/15 06:53:32;;;;;;;15.27;8.93;;;;;;;8.85;71.23;102887.34;4982573;28;20018;-73
2022/03/15 06:55:57;;;;;;;15.30;8.60;;;;;;;8.90;70.87;102884.09;4982257;28;20026;-73
2022/03/15 06:58:23;;;;;;;18.02;8.82;;;;;;;8.94;70.61;102890.75;4980529;28;20052;-73
2022/03/15 07:00:55;;;;;;;20.63;9.23;;;;;;;8.98;70.84;102886.69;4980806;28;20041;-74
2022/03/15 07:03:20;;;;;;;19.58;9.23;;;;;;;9.02;70.63;102898.69;4982811;28;20049;-73
2022/03/15 07:05:46;;;;;;;18.63;9.23;;;;;;;9.05;70.46;102895.63;4980129;28;20042;-73
2022/03/15 07:08:11;;;;;;;16.95;8.27;;;;;;;9.09;69.90;102894.25;4981049;28;20053;-73
2022/03/15 07:10:37;;;;;;;15.40;8.70;;;;;;;9.11;70.17;102894.88;4978228;28;20158;-73
2022/03/15 07:13:03;;;;;;;14.00;8.02;;;;;;;9.13;69.84;102895.53;4980032;28;20998;-73
2022/03/15 07:15:28;;;;;;;19.67;8.73;;;;;;;9.14;70.07;102894.50;4986172;28;20053;-73
2022/03/15 07:17:57;;;;;;;16.05;8.32;;;;;;;9.17;69.53;102885.31;4981349;28;20053;-73
2022/03/15 07:20:24;;;;;;;12.52;7.70;;;;;;;9.19;70.00;102892.13;4980346;28;20043;-73
2022/03/15 07:22:50;;;;;;;18.25;7.57;;;;;;;9.20;69.93;102892.94;4979839;28;20079;-73
2022/03/15 07:25:17;;;;;;;13.65;7.35;;;;;;;9.23;69.32;102890.72;4978391;28;20069;-73
2022/03/15 07:27:42;;;;;;;14.88;7.32;;;;;;;9.27;68.97;102891.19;4979752;28;20042;-73
2022/03/15 07:30:09;;;;;;;18.27;7.32;;;;;;;9.31;68.94;102890.59;4980100;28;20026;-73
2022/03/15 07:32:35;;;;;;;14.07;7.13;;;;;;;9.36;69.08;102882.88;4986318;28;20034;-73
2022/03/15 07:35:01;;;;;;;14.77;7.38;;;;;;;9.39;69.25;102885.16;4981126;28;20030;-73
2022/03/15 07:37:27;;;;;;;18.92;7.60;;;;;;;9.46;68.86;102882.56;4979639;28;20030;-73
2022/03/15 07:39:52;;;;;;;14.80;7.10;;;;;;;9.51;68.85;102887.34;4981408;28;20373;-73
2022/03/15 07:42:19;;;;;;;13.38;6.55;;;;;;;9.56;68.73;102884.94;4980905;28;20132;-73
2022/03/15 07:44:45;;;;;;;16.55;8.30;;;;;;;9.58;68.59;102883.72;4979452;28;20693;-73
2022/03/15 07:47:14;;;;;;;14.57;7.75;;;;;;;9.63;68.43;102888.50;4978813;28;20026;-73
2022/03/15 07:49:40;;;;;;;18.50;8.48;;;;;;;9.63;68.58;102891.19;4980953;28;20038;-73
2022/03/15 07:52:06;;;;;;;13.13;7.80;;;;;;;9.64;68.48;102890.16;4975656;28;20085;-73
2022/03/15 07:54:32;;;;;;;18.33;8.85;;;;;;;9.65;68.41;102889.97;4971045;28;20083;-73
2022/03/15 07:56:57;;;;;;;12.95;7.85;;;;;;;9.69;68.28;102898.44;4981379;28;20069;-73
2022/03/15 07:59:23;;;;;;;15.50;8.20;;;;;;;9.72;67.92;102887.38;4978903;28;20046;-73
2022/03/15 08:01:49;;;;;;;16.30;9.00;;;;;;;9.74;68.64;102881.84;4983639;28;20026;-73
2022/03/15 08:04:14;;;;;;;13.65;7.45;;;;;;;9.76;68.61;102883.28;4979973;28;20570;-73
2022/03/15 08:06:40;;;;;;;14.88;7.75;;;;;;;9.80;68.11;102886.41;4980706;28;20118;-73
2022/03/15 08:09:06;;;;;;;15.93;8.82;;;;;;;9.85;68.08;102892.84;4977298;28;20033;-73
2022/03/15 08:11:32;;;;;;;16.42;8.07;;;;;;;9.88;67.99;102895.16;4978562;28;20026;-73
2022/03/15 08:13:59;;;;;;;16.35;7.70;;;;;;;9.89;68.08;102894.16;4983234;28;20401;-73
2022/03/15 08:16:25;;;;;;;16.45;8.13;;;;;;;9.93;67.85;102897.25;4985773;28;20053;-73
2022/03/15 08:18:51;;;;;;;15.55;8.07;;;;;;;9.94;67.94;102885.53;4982722;28;20030;-73
2022/03/15 08:21:18;;;;;;;16.83;8.88;;;;;;;9.94;68.29;102886.34;4977838;28;20030;-73
2022/03/15 08:23:44;;;;;;;20.63;8.85;;;;;;;9.96;67.81;102892.34;4979403;28;20034;-73
2022/03/15 08:26:10;;;;;;;18.23;9.25;;;;;;;9.94;67.93;102899.75;4982942;28;20029;-73
2022/03/15 08:28:36;;;;;;;18.15;8.43;;;;;;;9.95;68.05;102901.41;4981717;28;20030;-73
2022/03/15 08:31:02;;;;;;;18.73;8.52;;;;;;;9.95;68.01;102897.91;4981545;28;20022;-74
2022/03/15 08:33:27;;;;;;;16.60;9.50;;;;;;;9.93;68.15;102902.63;4981032;28;20023;-73
2022/03/15 08:35:53;;;;;;;18.85;8.70;;;;;;;9.93;68.17;102897.25;4977345;28;20073;-73
2022/03/15 08:38:19;;;;;;;19.60;8.55;;;;;;;9.95;67.79;102900.56;4978883;28;20076;-73
2022/03/15 08:40:45;;;;;;;18.55;8.90;;;;;;;9.97;67.82;102902.03;4982909;28;20132;-73
2022/03/15 08:43:11;;;;;;;17.05;8.20;;;;;;;9.98;68.09;102905.53;4979865;28;20516;-73
2022/03/15 08:45:37;;;;;;;15.00;8.52;;;;;;;9.97;68.14;102904.72;4978501;28;20030;-73
2022/03/15 08:48:03;;;;;;;14.43;8.88;;;;;;;10.00;67.72;102903.50;4978735;28;20121;-73
2022/03/15 08:50:29;;;;;;;15.48;6.97;;;;;;;10.04;67.42;102899.41;4980343;28;20133;-73
2022/03/15 08:52:55;;;;;;;16.30;8.10;;;;;;;10.08;67.53;102905.25;4975481;28;20042;-73
2022/03/15 08:55:22;;;;;;;19.90;8.60;;;;;;;10.11;67.33;102907.53;4980088;28;20062;-74
2022/03/15 08:57:48;;;;;;;20.67;9.02;;;;;;;10.17;66.83;102904.06;4975945;28;20035;-73
2022/03/15 09:00:15;;;;;;;16.30;8.82;;;;;;;10.21;66.73;102903.50;4977924;28;20058;-73
2022/03/15 09:02:40;;;;;;;17.67;7.70;;;;;;;10.32;66.65;102904.03;4979296;28;20057;-73
2022/03/15 09:05:06;;;;;;;15.30;8.23;;;;;;;10.44;66.22;102906.00;4986733;28;20035;-73
2022/03/15 09:07:32;;;;;;;19.90;9.80;;;;;;;10.51;66.18;102906.84;4979659;28;20065;-73
2022/03/15 09:09:58;;;;;;;16.67;8.55;;;;;;;10.58;66.41;102894.31;4985751;28;20050;-73
2022/03/15 09:12:23;;;;;;;19.65;9.52;;;;;;;10.62;66.10;102893.97;4980031;28;20134;-73
2022/03/15 09:14:49;;;;;;;25.42;9.77;;;;;;;10.68;65.81;102887.81;4976574;28;20358;-73
2022/03/15 09:17:15;;;;;;;20.50;8.25;;;;;;;10.76;65.57;102890.31;4984760;28;20614;-73
2022/03/15 09:19:42;;;;;;;17.88;8.63;;;;;;;10.82;65.98;102882.31;4983372;28;20034;-73
2022/03/15 09:22:08;;;;;;;19.38;9.45;;;;;;;10.86;65.44;102888.94;4984332;28;20026;-73
2022/03/15 09:24:36;;;;;;;18.20;9.30;;;;;;;10.89;65.44;102890.41;4983745;28;20038;-73
2022/03/15 09:27:02;;;;;;;17.73;8.32;;;;;;;10.98;65.14;102889.22;4978911;28;20038;-73
2022/03/15 09:29:28;;;;;;;19.13;9.07;;;;;;;11.05;64.89;102898.13;4973148;28;20053;-73
2022/03/15 09:31:54;;;;;;;16.17;8.80;;;;;;;11.10;65.04;102897.50;4973113;28;20034;-73
2022/03/15 09:34:22;;;;;;;15.05;7.90;;;;;;;11.09;64.50;102893.19;4976403;28;20030;-73
2022/03/15 09:36:50;;;;;;;21.98;8.93;;;;;;;11.13;64.26;102894.44;4978744;28;20033;-73
2022/03/15 09:39:16;;;;;;;20.13;9.82;;;;;;;11.17;64.28;102888.50;4977814;28;20726;-73
2022/03/15 09:41:43;;;;;;;20.08;8.30;;;;;;;11.23;64.20;102888.72;4982359;28;20030;-73
2022/03/15 09:44:10;;;;;;;15.43;8.07;;;;;;;11.33;63.99;102889.19;4985873;28;20029;-73
2022/03/15 09:46:47;;;;;;;15.45;7.35;;;;;;;11.41;63.61;102881.75;4978209;28;20129;-73
2022/03/15 09:49:15;;;;;;;19.65;8.45;;;;;;;11.60;63.37;102880.16;4982158;28;20048;-73
2022/03/15 09:51:42;;;;;;;17.98;8.40;;;;;;;11.86;63.20;102870.56;4981595;28;20096;-73
2022/03/15 09:54:07;;;;;;;17.13;9.10;;;;;;;12.03;62.73;102875.31;4985025;28;20077;-73
2022/03/15 09:56:38;;;;;;;17.83;8.68;;;;;;;12.16;62.54;102866.41;4978853;28;20587;-73
2022/03/15 09:59:14;;;;;;;19.88;9.15;;;;;;;12.30;62.16;102868.06;4978644;28;20137;-73
2022/03/15 10:01:41;;;;;;;17.67;8.65;;;;;;;12.46;61.83;102863.31;4982443;28;20118;-73
2022/03/15 10:04:08;;;;;;;15.50;8.30;;;;;;;12.52;61.88;102857.06;4988060;28;20599;-73
2022/03/15 10:06:36;;;;;;;19.40;10.00;;;;;;;12.58;61.50;102861.63;4988185;28;20034;-73
2022/03/15 10:09:03;;;;;;;17.60;9.75;;;;;;;12.60;61.45;102864.94;4987582;28;20135;-73
2022/03/15 10:11:28;;;;;;;22.45;9.27;;;;;;;12.66;61.11;102869.47;4981156;28;20037;-73
2022/03/15 10:13:55;;;;;;;20.00;9.90;;;;;;;12.76;60.96;102861.81;4983742;28;20014;-73
2022/03/15 10:16:21;;;;;;;17.15;8.73;;;;;;;12.86;60.49;102864.03;4981212;28;20034;-73
2022/03/15 10:18:58;;;;;;;18.30;7.82;;;;;;;12.96;60.17;102859.88;4984046;28;20030;-73
2022/03/15 10:21:26;;;;;;;19.45;8.73;;;;;;;13.18;59.88;102848.84;4982038;28;20026;-73
2022/03/15 10:23:54;;;;;;;16.85;9.55;;;;;;;13.35;59.46;102858.06;4981983;28;20117;-73
2022/03/15 10:26:27;;;;;;;16.90;8.32;;;;;;;13.56;59.01;102863.13;4981437;28;20535;-73
2022/03/15 10:28:54;;;;;;;21.20;9.82;;;;;;;13.73;58.56;102855.34;4977563;28;20038;-73
2022/03/15 10:31:24;;;;;;;22.33;9.20;;;;;;;13.83;58.33;102844.09;4979432;28;20132;-73
2022/03/15 10:33:54;;;;;;;18.65;8.05;;;;;;;13.90;58.00;102852.97;4977833;28;20030;-73
2022/03/15 10:36:21;;;;;;;15.95;8.70;;;;;;;13.99;57.45;102843.53;4978449;28;20120;-73
2022/03/15 10:38:52;;;;;;;20.67;9.07;;;;;;;14.12;57.49;102837.22;4983798;28;20089;-73
2022/03/15 10:41:19;;;;;;;16.92;8.63;;;;;;;14.24;57.21;102838.16;4981420;28;20034;-73
2022/03/15 10:43:53;;;;;;;15.60;7.97;;;;;;;14.36;56.53;102838.22;4981809;28;20041;-74
2022/03/15 10:46:23;;;;;;;16.77;7.33;;;;;;;14.51;55.85;102836.88;4977649;28;20082;-73
2022/03/15 10:49:01;;;;;;;17.92;7.45;;;;;;;14.58;55.46;102825.19;4981140;28;20080;-73
2022/03/15 10:51:27;;;;;;;16.13;7.70;;;;;;;14.72;55.28;102837.47;4982792;28;20038;-73
2022/03/15 10:54:00;;;;;;;17.60;8.23;;;;;;;14.78;54.54;102825.81;4983762;28;20022;-74
2022/03/15 10:56:26;;;;;;;16.05;7.55;;;;;;;14.84;54.73;102827.59;4977105;28;20027;-74
2022/03/15 10:59:01;;;;;;;14.18;7.80;;;;;;;14.89;54.37;102822.31;4979670;28;20026;-74
2022/03/15 11:01:29;;;;;;;15.48;7.25;;;;;;;14.98;54.28;102820.97;4973963;28;20171;-74
2022/03/15 11:04:12;;;;;;;18.55;6.85;;;;;;;15.07;53.47;102811.50;4980897;28;20562;-73
2022/03/15 11:06:39;;;;;;;12.38;6.47;;;;;;;15.26;53.53;102812.31;4982983;28;20113;-74
2022/03/15 11:09:26;;;;;;;12.40;6.72;;;;;;;15.35;52.75;102807.41;4977152;28;20411;-74
2022/03/15 11:12:00;;;;;;;17.02;7.90;;;;;;;15.35;52.42;102810.94;4979938;28;20019;-74
2022/03/15 11:14:41;;;;;;;19.80;6.55;;;;;;;15.39;52.14;102809.41;4978349;28;20025;-74
2022/03/15 11:17:14;;;;;;;18.17;6.78;;;;;;;15.42;51.65;102811.63;4978989;28;20257;-74